createdAt,value
2019-04-11T00:00:19.848Z,99.99
2019-04-11T00:01:19.885Z,99.99
2019-04-11T00:02:20.627Z,99.99
2019-04-11T00:03:19.659Z,99.99
2019-04-11T00:04:19.603Z,99.99
2019-04-11T00:05:19.521Z,99.99
2019-04-11T00:06:19.464Z,99.99
2019-04-11T00:07:20.415Z,99.99
2019-04-11T00:08:19.673Z,99.99
2019-04-11T00:09:19.266Z,99.99
2019-04-11T00:10:19.201Z,99.99
2019-04-11T00:11:19.870Z,99.99
2019-04-11T00:12:19.072Z,99.99
2019-04-11T00:13:23.926Z,99.99
2019-04-11T00:14:19.934Z,99.99
2019-04-11T00:15:18.876Z,99.99
2019-04-11T00:16:19.401Z,99.99
2019-04-11T00:17:19.592Z,99.99
2019-04-11T00:18:18.700Z,99.99
2019-04-11T00:19:19.058Z,99.99
2019-04-11T00:20:18.559Z,99.99
2019-04-11T00:21:18.495Z,99.99
2019-04-11T00:22:19.402Z,99.99
2019-04-11T00:23:18.391Z,99.99
2019-04-11T00:24:18.706Z,99.99
2019-04-11T00:25:18.235Z,99.99
2019-04-11T00:26:18.188Z,99.99
2019-04-11T00:27:19.041Z,99.99
2019-04-11T00:28:18.038Z,99.99
2019-04-11T00:29:18.470Z,99.99
2019-04-11T00:30:17.911Z,99.99
2019-04-11T00:31:18.870Z,99.99
2019-04-11T00:32:17.801Z,99.99
2019-04-11T00:33:18.191Z,99.99
2019-04-11T00:34:18.528Z,99.99
2019-04-11T00:35:17.673Z,99.99
2019-04-11T00:36:17.531Z,99.99
2019-04-11T00:37:17.461Z,99.99
2019-04-11T00:38:18.033Z,99.99
2019-04-11T00:39:17.349Z,99.99
2019-04-11T00:40:18.485Z,99.99
2019-04-11T00:41:17.593Z,99.99
2019-04-11T00:42:17.137Z,99.99
2019-04-11T00:43:29.819Z,99.99
2019-04-11T00:44:17.009Z,99.99
2019-04-11T00:45:16.941Z,99.99
2019-04-11T00:46:16.880Z,99.99
2019-04-11T00:47:17.172Z,99.99
2019-04-11T00:48:17.572Z,99.99
2019-04-11T00:49:16.681Z,99.99
2019-04-11T00:50:16.619Z,99.99
2019-04-11T00:51:17.655Z,99.99
2019-04-11T00:52:16.505Z,99.99
2019-04-11T00:53:16.436Z,99.99
2019-04-11T00:54:16.481Z,99.99
2019-04-11T00:55:17.537Z,99.99
2019-04-11T00:56:16.232Z,99.99
2019-04-11T00:57:16.868Z,99.99
2019-04-11T00:58:16.906Z,99.99
2019-04-11T00:59:16.227Z,99.99
2019-04-11T01:00:15.968Z,99.99
2019-04-11T01:01:15.904Z,99.99
2019-04-11T01:02:15.842Z,99.99
2019-04-11T01:03:15.886Z,99.99
2019-04-11T01:04:15.870Z,99.99
2019-04-11T01:05:15.639Z,99.99
2019-04-11T01:06:16.198Z,99.99
2019-04-11T01:07:16.476Z,99.99
2019-04-11T01:08:15.682Z,99.99
2019-04-11T01:09:15.876Z,99.99
2019-04-11T01:10:16.192Z,99.99
2019-04-11T01:11:16.133Z,99.99
2019-04-11T01:12:16.427Z,99.99
2019-04-11T01:13:15.755Z,99.99
2019-04-11T01:14:15.340Z,99.99
2019-04-11T01:15:15.450Z,99.99
2019-04-11T01:16:14.928Z,99.99
2019-04-11T01:17:14.951Z,99.99
2019-04-11T01:18:15.932Z,99.99
2019-04-11T01:19:14.736Z,99.99
2019-04-11T01:20:15.391Z,99.99
2019-04-11T01:21:15.595Z,99.99
2019-04-11T01:22:14.540Z,99.99
2019-04-11T01:23:15.158Z,99.99
2019-04-11T01:24:15.558Z,99.99
2019-04-11T01:25:14.716Z,99.99
2019-04-11T01:26:14.280Z,99.99
2019-04-11T01:27:14.214Z,99.99
2019-04-11T01:28:14.324Z,99.99
2019-04-11T01:29:14.083Z,99.99
2019-04-11T01:30:14.019Z,99.99
2019-04-11T01:31:13.949Z,99.99
2019-04-11T01:32:13.984Z,99.99
2019-04-11T01:33:13.825Z,99.99
2019-04-11T01:34:13.764Z,99.99
2019-04-11T01:35:13.695Z,99.99
2019-04-11T01:36:13.783Z,99.99
2019-04-11T01:37:13.562Z,99.99
2019-04-11T01:38:13.945Z,99.99
2019-04-11T01:39:13.438Z,99.99
2019-04-11T01:40:13.793Z,99.99
2019-04-11T01:41:14.111Z,99.99
2019-04-11T01:42:13.320Z,99.99
2019-04-11T01:43:13.564Z,99.99
2019-04-11T01:44:13.106Z,99.99
2019-04-11T01:45:13.584Z,99.36
2019-04-11T01:46:14.029Z,98.12
2019-04-11T01:47:13.018Z,98.60
2019-04-11T01:48:12.845Z,98.60
2019-04-11T01:49:12.780Z,99.55
2019-04-11T01:50:12.715Z,99.84
2019-04-11T01:51:13.716Z,99.99
2019-04-11T01:52:12.585Z,99.84
2019-04-11T01:53:13.031Z,99.36
2019-04-11T01:54:13.265Z,99.99
2019-04-11T01:55:12.387Z,98.60
2019-04-11T01:56:12.796Z,98.22
2019-04-11T01:57:12.267Z,98.50
2019-04-11T01:58:12.196Z,99.36
2019-04-11T01:59:13.160Z,99.16
2019-04-11T02:00:12.288Z,98.60
2019-04-11T02:01:12.604Z,99.16
2019-04-11T02:02:11.934Z,98.31
2019-04-11T02:03:11.867Z,96.89
2019-04-11T02:04:12.001Z,97.36
2019-04-11T02:05:12.490Z,97.55
2019-04-11T02:06:11.858Z,97.36
2019-04-11T02:07:12.228Z,97.36
2019-04-11T02:08:11.544Z,97.41
2019-04-11T02:09:11.611Z,97.08
2019-04-11T02:10:12.666Z,97.88
2019-04-11T02:11:11.344Z,99.36
2019-04-11T02:12:12.091Z,98.64
2019-04-11T02:13:11.973Z,96.74
2019-04-11T02:14:16.130Z,96.36
2019-04-11T02:15:12.245Z,95.51
2019-04-11T02:16:11.015Z,95.41
2019-04-11T02:17:10.955Z,95.41
2019-04-11T02:18:10.975Z,95.32
2019-04-11T02:19:11.880Z,95.70
2019-04-11T02:20:10.761Z,96.08
2019-04-11T02:21:11.549Z,95.51
2019-04-11T02:22:10.627Z,96.08
2019-04-11T02:23:10.886Z,95.89
2019-04-11T02:24:10.497Z,96.17
2019-04-11T02:25:10.438Z,96.17
2019-04-11T02:26:11.435Z,95.89
2019-04-11T02:27:10.610Z,96.84
2019-04-11T02:28:10.619Z,95.89
2019-04-11T02:29:11.134Z,95.79
2019-04-11T02:30:11.177Z,96.08
2019-04-11T02:31:11.589Z,95.79
2019-04-11T02:32:10.487Z,96.74
2019-04-11T02:33:11.681Z,97.69
2019-04-11T02:34:11.399Z,97.50
2019-04-11T02:35:11.141Z,96.36
2019-04-11T02:36:11.719Z,95.32
2019-04-11T02:37:09.757Z,94.56
2019-04-11T02:38:11.516Z,94.74
2019-04-11T02:39:14.520Z,94.84
2019-04-11T02:40:09.447Z,95.32
2019-04-11T02:41:10.559Z,94.93
2019-04-11T02:42:10.709Z,94.74
2019-04-11T02:43:10.939Z,95.41
2019-04-11T02:44:27.234Z,94.93
2019-04-11T02:45:26.358Z,95.22
2019-04-11T02:46:19.756Z,95.32
2019-04-11T02:47:15.817Z,95.22
2019-04-11T02:48:11.506Z,94.65
2019-04-11T02:49:10.276Z,94.65
2019-04-11T02:50:10.455Z,94.08
2019-04-11T02:51:09.871Z,93.60
2019-04-11T02:52:09.547Z,94.56
2019-04-11T02:53:09.420Z,93.79
2019-04-11T02:54:08.868Z,94.37
2019-04-11T02:55:10.284Z,94.08
2019-04-11T02:56:11.118Z,94.93
2019-04-11T02:57:09.867Z,94.65
2019-04-11T02:58:08.292Z,94.37
2019-04-11T02:59:09.004Z,94.08
2019-04-11T03:00:08.579Z,93.13
2019-04-11T03:01:09.894Z,93.60
2019-04-11T03:02:09.130Z,94.56
2019-04-11T03:03:08.595Z,93.60
2019-04-11T03:04:08.238Z,93.56
2019-04-11T03:05:09.425Z,92.37
2019-04-11T03:06:09.356Z,93.32
2019-04-11T03:07:08.046Z,92.94
2019-04-11T03:08:11.449Z,93.23
2019-04-11T03:09:07.853Z,93.18
2019-04-11T03:10:11.331Z,93.56
2019-04-11T03:11:08.223Z,93.08
2019-04-11T03:12:07.969Z,92.80
2019-04-11T03:13:08.390Z,92.90
2019-04-11T03:14:07.605Z,92.42
2019-04-11T03:15:25.559Z,91.99
2019-04-11T03:16:23.940Z,91.94
2019-04-11T03:17:16.416Z,91.89
2019-04-11T03:18:09.397Z,92.04
2019-04-11T03:19:21.124Z,92.61
2019-04-11T03:20:17.842Z,92.42
2019-04-11T03:21:13.395Z,93.75
2019-04-11T03:22:08.078Z,94.13
2019-04-11T03:23:09.867Z,93.84
2019-04-11T03:24:10.339Z,94.13
2019-04-11T03:25:08.467Z,94.60
2019-04-11T03:26:07.522Z,94.98
2019-04-11T03:27:07.740Z,94.51
2019-04-11T03:28:11.332Z,93.56
2019-04-11T03:29:06.891Z,93.37
2019-04-11T03:30:10.773Z,92.61
2019-04-11T03:31:42.678Z,93.37
2019-04-11T03:35:06.215Z,94.03
2019-04-11T03:36:04.071Z,94.60
2019-04-11T03:37:08.574Z,93.27
2019-04-11T03:37:27.373Z,94.23
2019-04-11T03:38:29.680Z,93.18
2019-04-11T03:40:27.214Z,93.75
2019-04-11T03:41:24.973Z,93.94
2019-04-11T03:42:20.447Z,93.56
2019-04-11T03:43:16.479Z,93.37
2019-04-11T03:44:14.440Z,94.42
2019-04-11T03:45:26.108Z,94.89
2019-04-11T03:46:26.633Z,93.75
2019-04-11T03:47:20.529Z,94.60
2019-04-11T03:48:20.514Z,93.75
2019-04-11T03:49:19.610Z,93.84
2019-04-11T03:50:09.336Z,93.56
2019-04-11T03:51:04.876Z,94.60
2019-04-11T03:52:05.819Z,93.65
2019-04-11T03:53:06.572Z,93.37
2019-04-11T03:54:05.053Z,93.56
2019-04-11T03:55:06.878Z,93.27
2019-04-11T03:56:04.617Z,93.27
2019-04-11T03:57:05.548Z,92.99
2019-04-11T03:58:05.998Z,92.90
2019-04-11T03:59:06.000Z,93.56
2019-04-11T04:00:06.230Z,94.23
2019-04-11T04:01:08.400Z,94.23
2019-04-11T04:02:05.792Z,94.23
2019-04-11T04:03:05.941Z,93.94
2019-04-11T04:04:04.143Z,94.51
2019-04-11T04:05:05.637Z,95.08
2019-04-11T04:06:04.407Z,93.75
2019-04-11T04:07:04.869Z,93.75
2019-04-11T04:08:04.576Z,93.94
2019-04-11T04:09:03.631Z,93.65
2019-04-11T04:10:05.021Z,94.03
2019-04-11T04:11:03.996Z,93.08
2019-04-11T04:12:04.890Z,92.71
2019-04-11T04:13:04.938Z,93.08
2019-04-11T04:14:04.181Z,92.90
2019-04-11T04:15:04.447Z,92.99
2019-04-11T04:16:12.045Z,93.08
2019-04-11T04:17:04.251Z,92.99
2019-04-11T04:18:03.566Z,92.80
2019-04-11T04:19:04.780Z,93.37
2019-04-11T04:20:04.866Z,92.51
2019-04-11T04:21:04.236Z,92.51
2019-04-11T04:22:03.148Z,91.75
2019-04-11T04:23:03.246Z,92.99
2019-04-11T04:24:04.069Z,92.51
2019-04-11T04:25:04.246Z,92.90
2019-04-11T04:26:03.131Z,92.61
2019-04-11T04:27:04.251Z,92.99
2019-04-11T04:28:03.041Z,92.23
2019-04-11T04:29:04.300Z,91.94
2019-04-11T04:30:04.558Z,92.51
2019-04-11T04:31:02.222Z,92.42
2019-04-11T04:32:02.845Z,92.99
2019-04-11T04:33:02.911Z,91.61
2019-04-11T04:34:03.404Z,92.47
2019-04-11T04:35:01.906Z,92.75
2019-04-11T04:36:02.453Z,93.27
2019-04-11T04:37:03.479Z,92.71
2019-04-11T04:38:03.077Z,92.71
2019-04-11T04:39:03.260Z,92.71
2019-04-11T04:40:19.482Z,92.04
2019-04-11T04:41:16.287Z,92.04
2019-04-11T04:42:08.859Z,92.61
2019-04-11T04:43:04.658Z,92.90
2019-04-11T04:44:01.820Z,93.27
2019-04-11T04:45:02.734Z,92.80
2019-04-11T04:46:20.509Z,93.32
2019-04-11T04:47:13.745Z,93.89
2019-04-11T04:48:04.612Z,93.23
2019-04-11T04:49:02.328Z,92.66
2019-04-11T04:50:01.387Z,92.66
2019-04-11T04:51:06.254Z,93.04
2019-04-11T04:52:01.523Z,92.37
2019-04-11T04:53:02.573Z,94.18
2019-04-11T04:54:00.646Z,94.27
2019-04-11T04:55:02.113Z,93.70
2019-04-11T04:56:00.512Z,93.99
2019-04-11T04:57:00.967Z,94.46
2019-04-11T04:58:02.007Z,93.99
2019-04-11T04:59:00.301Z,93.04
2019-04-11T05:00:02.403Z,92.75
2019-04-11T05:01:01.439Z,93.23
2019-04-11T05:02:01.786Z,92.61
2019-04-11T05:03:02.069Z,91.89
2019-04-11T05:03:59.969Z,91.99
2019-04-11T05:05:01.278Z,92.23
2019-04-11T05:06:01.162Z,92.23
2019-04-11T05:07:01.073Z,91.24
2019-04-11T05:08:00.620Z,91.99
2019-04-11T05:09:00.204Z,91.61
2019-04-11T05:10:00.945Z,93.32
2019-04-11T05:10:59.506Z,92.47
2019-04-11T05:11:59.440Z,93.75
2019-04-11T05:12:59.462Z,93.32
2019-04-11T05:14:00.742Z,92.47
2019-04-11T05:14:59.301Z,91.71
2019-04-11T05:16:09.614Z,91.85
2019-04-11T05:17:00.432Z,92.04
2019-04-11T05:17:59.867Z,92.71
2019-04-11T05:18:59.461Z,92.51
2019-04-11T05:19:58.912Z,92.18
2019-04-11T05:20:59.032Z,92.09
2019-04-11T05:21:59.785Z,92.23
2019-04-11T05:22:59.922Z,92.13
2019-04-11T05:23:58.644Z,92.61
2019-04-11T05:25:01.742Z,93.13
2019-04-11T05:25:59.951Z,93.18
2019-04-11T05:26:58.447Z,93.41
2019-04-11T05:27:58.380Z,93.08
2019-04-11T05:28:58.322Z,95.27
2019-04-11T05:29:58.505Z,95.12
2019-04-11T05:30:58.402Z,94.56
2019-04-11T05:31:58.930Z,94.37
2019-04-11T05:32:58.060Z,93.60
2019-04-11T05:33:57.985Z,93.51
2019-04-11T05:34:58.533Z,93.80
2019-04-11T05:35:58.526Z,95.22
2019-04-11T05:36:57.787Z,95.03
2019-04-11T05:37:57.956Z,93.99
2019-04-11T05:38:58.275Z,94.37
2019-04-11T05:39:58.581Z,92.37
2019-04-11T05:40:58.495Z,94.08
2019-04-11T05:41:58.499Z,93.89
2019-04-11T05:42:57.605Z,93.51
2019-04-11T05:44:00.897Z,92.28
2019-04-11T05:44:57.260Z,94.08
2019-04-11T05:45:58.331Z,94.08
2019-04-11T05:47:00.681Z,93.80
2019-04-11T05:47:58.297Z,94.18
2019-04-11T05:49:00.412Z,94.13
2019-04-11T05:49:56.969Z,94.60
2019-04-11T05:50:56.858Z,94.74
2019-04-11T05:51:58.740Z,94.27
2019-04-11T05:52:56.797Z,93.65
2019-04-11T05:53:57.748Z,93.51
2019-04-11T05:54:56.598Z,93.04
2019-04-11T05:55:57.427Z,92.37
2019-04-11T05:56:57.911Z,93.23
2019-04-11T05:57:56.485Z,92.47
2019-04-11T05:58:56.332Z,94.27
2019-04-11T05:59:57.445Z,94.84
2019-04-11T06:00:57.811Z,94.74
2019-04-11T06:01:56.133Z,94.37
2019-04-11T06:02:57.420Z,94.56
2019-04-11T06:03:56.001Z,96.17
2019-04-11T06:04:56.224Z,95.31
2019-04-11T06:05:59.853Z,95.79
2019-04-11T06:06:58.069Z,96.55
2019-04-11T06:07:57.674Z,96.17
2019-04-11T06:08:58.619Z,96.45
2019-04-11T06:09:56.566Z,96.45
2019-04-11T06:10:56.628Z,96.45
2019-04-11T06:11:57.512Z,97.22
2019-04-11T06:12:55.407Z,97.69
2019-04-11T06:13:56.313Z,97.60
2019-04-11T06:14:55.539Z,99.87
2019-04-11T06:15:56.709Z,99.58
2019-04-11T06:16:56.167Z,99.99
2019-04-11T06:17:55.074Z,99.99
2019-04-11T06:18:55.007Z,99.99
2019-04-11T06:19:55.689Z,99.99
2019-04-11T06:20:55.655Z,99.99
2019-04-11T06:21:55.869Z,99.99
2019-04-11T06:22:54.745Z,99.99
2019-04-11T06:23:55.858Z,99.99
2019-04-11T06:24:54.610Z,99.99
2019-04-11T06:25:55.594Z,99.99
2019-04-11T06:26:54.757Z,99.99
2019-04-11T06:27:54.415Z,99.21
2019-04-11T06:28:55.837Z,98.83
2019-04-11T06:29:54.901Z,99.40
2019-04-11T06:30:54.775Z,99.92
2019-04-11T06:31:55.080Z,99.92
2019-04-11T06:32:54.441Z,99.77
2019-04-11T06:33:54.023Z,99.97
2019-04-11T06:34:53.953Z,99.87
2019-04-11T06:35:54.542Z,98.45
2019-04-11T06:36:55.108Z,97.97
2019-04-11T06:37:54.216Z,97.78
2019-04-11T06:38:54.684Z,97.97
2019-04-11T06:39:54.549Z,98.54
2019-04-11T06:40:54.475Z,98.26
2019-04-11T06:41:53.489Z,97.50
2019-04-11T06:42:53.847Z,97.02
2019-04-11T06:43:53.356Z,96.83
2019-04-11T06:44:54.271Z,97.12
2019-04-11T06:45:54.350Z,97.02
2019-04-11T06:46:57.318Z,96.55
2019-04-11T06:47:53.479Z,97.31
2019-04-11T06:48:53.944Z,96.55
2019-04-11T06:49:53.057Z,96.45
2019-04-11T06:50:52.895Z,96.22
2019-04-11T06:51:53.916Z,96.69
2019-04-11T06:52:53.001Z,96.31
2019-04-11T06:53:52.693Z,95.98
2019-04-11T06:54:52.628Z,95.79
2019-04-11T06:55:53.157Z,94.84
2019-04-11T06:56:53.723Z,95.51
2019-04-11T06:57:52.434Z,95.60
2019-04-11T06:58:53.629Z,95.79
2019-04-11T06:59:52.555Z,95.51
2019-04-11T07:00:52.230Z,94.51
2019-04-11T07:01:53.020Z,94.98
2019-04-11T07:02:52.919Z,94.79
2019-04-11T07:03:53.188Z,94.60
2019-04-11T07:04:51.982Z,94.51
2019-04-11T07:05:53.086Z,94.03
2019-04-11T07:06:51.840Z,94.60
2019-04-11T07:07:51.814Z,93.75
2019-04-11T07:08:51.708Z,92.99
2019-04-11T07:09:51.643Z,92.42
2019-04-11T07:10:51.574Z,92.13
2019-04-11T07:11:52.559Z,92.71
2019-04-11T07:12:53.023Z,91.66
2019-04-11T07:13:51.378Z,91.85
2019-04-11T07:14:51.313Z,91.66
2019-04-11T07:15:51.249Z,91.56
2019-04-11T07:17:01.431Z,92.32
2019-04-11T07:17:51.114Z,92.13
2019-04-11T07:18:51.047Z,93.84
2019-04-11T07:19:51.528Z,94.60
2019-04-11T07:20:52.387Z,93.18
2019-04-11T07:21:50.853Z,93.27
2019-04-11T07:22:50.999Z,93.08
2019-04-11T07:23:51.399Z,92.80
2019-04-11T07:24:50.653Z,93.46
2019-04-11T07:25:51.675Z,92.13
2019-04-11T07:26:50.521Z,91.75
2019-04-11T07:27:50.724Z,92.13
2019-04-11T07:28:50.393Z,92.71
2019-04-11T07:29:50.746Z,92.99
2019-04-11T07:30:50.260Z,92.13
2019-04-11T07:31:50.433Z,92.61
2019-04-11T07:32:50.831Z,93.08
2019-04-11T07:33:50.065Z,92.90
2019-04-11T07:34:49.996Z,93.18
2019-04-11T07:35:50.816Z,93.65
2019-04-11T07:36:49.880Z,93.08
2019-04-11T07:37:51.040Z,92.42
2019-04-11T07:38:52.150Z,92.51
2019-04-11T07:39:49.671Z,92.51
2019-04-11T07:40:50.261Z,93.08
2019-04-11T07:41:49.990Z,93.75
2019-04-11T07:42:50.238Z,93.56
2019-04-11T07:43:50.030Z,94.03
2019-04-11T07:44:49.520Z,93.18
2019-04-11T07:45:49.277Z,93.27
2019-04-11T07:46:49.538Z,93.37
2019-04-11T07:47:50.342Z,93.56
2019-04-11T07:48:49.077Z,93.08
2019-04-11T07:49:50.219Z,93.37
2019-04-11T07:50:48.952Z,93.46
2019-04-11T07:51:48.879Z,91.66
2019-04-11T07:52:48.817Z,92.32
2019-04-11T07:53:48.756Z,92.61
2019-04-11T07:54:48.688Z,92.42
2019-04-11T07:55:48.807Z,92.42
2019-04-11T07:56:48.657Z,92.23
2019-04-11T07:57:48.956Z,92.51
2019-04-11T07:58:48.422Z,92.51
2019-04-11T07:59:49.081Z,93.18
2019-04-11T08:00:51.354Z,92.99
2019-04-11T08:01:48.225Z,93.37
2019-04-11T08:02:48.155Z,92.99
2019-04-11T08:03:49.069Z,92.51
2019-04-11T08:04:48.040Z,91.94
2019-04-11T08:05:47.963Z,91.66
2019-04-11T08:06:47.970Z,92.18
2019-04-11T08:07:49.032Z,91.13
2019-04-11T08:08:47.767Z,91.42
2019-04-11T08:09:48.315Z,91.99
2019-04-11T08:10:48.451Z,92.18
2019-04-11T08:11:47.797Z,92.27
2019-04-11T08:12:47.978Z,92.66
2019-04-11T08:13:47.438Z,93.13
2019-04-11T08:14:47.374Z,92.94
2019-04-11T08:15:48.115Z,92.85
2019-04-11T08:16:47.243Z,92.08
2019-04-11T08:17:48.063Z,91.13
2019-04-11T08:18:47.118Z,91.42
2019-04-11T08:19:47.042Z,92.75
2019-04-11T08:20:47.790Z,92.66
2019-04-11T08:21:46.916Z,92.66
2019-04-11T08:22:47.531Z,92.08
2019-04-11T08:23:47.756Z,92.18
2019-04-11T08:24:46.894Z,91.23
2019-04-11T08:25:47.422Z,91.13
2019-04-11T08:26:46.592Z,91.61
2019-04-11T08:27:54.725Z,92.27
2019-04-11T08:28:50.258Z,92.66
2019-04-11T08:29:48.873Z,92.08
2019-04-11T08:30:46.853Z,92.08
2019-04-11T08:31:46.635Z,91.33
2019-04-11T08:32:46.464Z,91.04
2019-04-11T08:33:46.756Z,91.71
2019-04-11T08:34:46.063Z,92.08
2019-04-11T08:35:46.158Z,90.94
2019-04-11T08:36:47.224Z,91.80
2019-04-11T08:37:45.868Z,91.42
2019-04-11T08:38:46.703Z,91.33
2019-04-11T08:39:47.079Z,91.52
2019-04-11T08:40:45.669Z,91.42
2019-04-11T08:41:45.607Z,91.52
2019-04-11T08:42:46.490Z,91.33
2019-04-11T08:43:45.614Z,91.23
2019-04-11T08:44:45.412Z,92.37
2019-04-11T08:45:46.474Z,91.33
2019-04-11T08:46:45.282Z,91.13
2019-04-11T08:47:50.363Z,91.52
2019-04-11T08:48:45.623Z,92.27
2019-04-11T08:49:45.969Z,92.08
2019-04-11T08:50:45.018Z,93.04
2019-04-11T08:51:44.952Z,93.70
2019-04-11T08:52:44.888Z,93.32
2019-04-11T08:53:44.947Z,92.66
2019-04-11T08:54:45.860Z,92.56
2019-04-11T08:55:51.986Z,93.32
2019-04-11T08:56:45.400Z,93.04
2019-04-11T08:57:44.646Z,93.60
2019-04-11T08:58:44.833Z,94.37
2019-04-11T08:59:44.431Z,93.32
2019-04-11T09:00:44.367Z,92.66
2019-04-11T09:01:45.617Z,91.71
2019-04-11T09:02:44.967Z,91.80
2019-04-11T09:03:56.700Z,91.23
2019-04-11T09:04:44.102Z,91.33
2019-04-11T09:05:44.044Z,92.32
2019-04-11T09:06:44.983Z,91.89
2019-04-11T09:07:43.914Z,92.03
2019-04-11T09:08:44.805Z,92.13
2019-04-11T09:09:43.833Z,92.89
2019-04-11T09:10:44.277Z,93.08
2019-04-11T09:11:44.735Z,93.84
2019-04-11T09:12:44.611Z,93.65
2019-04-11T09:13:43.996Z,93.65
2019-04-11T09:14:44.412Z,93.37
2019-04-11T09:15:43.387Z,93.27
2019-04-11T09:16:43.327Z,92.89
2019-04-11T09:17:54.922Z,91.85
2019-04-11T09:18:44.053Z,91.56
2019-04-11T09:19:43.168Z,92.41
2019-04-11T09:20:43.426Z,93.18
2019-04-11T09:21:42.997Z,92.32
2019-04-11T09:22:42.936Z,93.84
2019-04-11T09:23:43.907Z,94.03
2019-04-11T09:24:43.145Z,92.70
2019-04-11T09:25:43.436Z,92.32
2019-04-11T09:26:44.325Z,92.70
2019-04-11T09:27:42.682Z,92.70
2019-04-11T09:28:43.916Z,93.27
2019-04-11T09:29:42.480Z,92.80
2019-04-11T09:30:43.146Z,92.32
2019-04-11T09:31:43.751Z,91.37
2019-04-11T09:32:42.513Z,92.22
2019-04-11T09:33:42.214Z,92.70
2019-04-11T09:34:42.148Z,92.08
2019-04-11T09:35:42.086Z,92.61
2019-04-11T09:36:42.024Z,92.13
2019-04-11T09:37:43.064Z,92.13
2019-04-11T09:38:42.369Z,92.51
2019-04-11T09:39:41.826Z,92.70
2019-04-11T09:40:41.772Z,91.75
2019-04-11T09:41:42.563Z,91.75
2019-04-11T09:42:43.007Z,92.32
2019-04-11T09:43:42.267Z,92.61
2019-04-11T09:44:41.497Z,92.70
2019-04-11T09:45:41.691Z,93.94
2019-04-11T09:46:41.366Z,94.56
2019-04-11T09:47:41.354Z,94.37
2019-04-11T09:48:42.297Z,94.65
2019-04-11T09:49:41.172Z,94.56
2019-04-11T09:50:41.106Z,94.46
2019-04-11T09:51:42.170Z,94.56
2019-04-11T09:52:41.009Z,94.74
2019-04-11T09:53:41.094Z,94.70
2019-04-11T09:54:41.818Z,95.03
2019-04-11T09:55:41.656Z,94.74
2019-04-11T09:56:40.719Z,94.42
2019-04-11T09:57:41.813Z,94.37
2019-04-11T09:58:40.593Z,95.12
2019-04-11T09:59:41.139Z,94.65
2019-04-11T10:00:40.991Z,94.42
2019-04-11T10:01:40.782Z,94.51
2019-04-11T10:02:40.327Z,94.51
2019-04-11T10:03:40.879Z,93.84
2019-04-11T10:04:40.197Z,93.65
2019-04-11T10:05:40.676Z,93.46
2019-04-11T10:06:40.981Z,94.13
2019-04-11T10:07:40.003Z,94.51
2019-04-11T10:08:39.936Z,94.13
2019-04-11T10:09:40.056Z,95.94
2019-04-11T10:10:41.876Z,95.03
2019-04-11T10:11:40.131Z,94.22
2019-04-11T10:12:40.494Z,93.84
2019-04-11T10:13:40.674Z,94.89
2019-04-11T10:14:39.815Z,93.84
2019-04-11T10:15:39.778Z,93.46
2019-04-11T10:16:40.122Z,93.18
2019-04-11T10:17:40.210Z,92.89
2019-04-11T10:18:41.053Z,93.84
2019-04-11T10:19:40.236Z,95.46
2019-04-11T10:20:40.383Z,93.84
2019-04-11T10:21:39.588Z,93.84
2019-04-11T10:22:40.286Z,93.27
2019-04-11T10:23:38.958Z,94.70
2019-04-11T10:24:38.901Z,94.42
2019-04-11T10:25:39.330Z,93.75
2019-04-11T10:26:38.762Z,94.22
2019-04-11T10:27:38.744Z,94.13
2019-04-11T10:28:39.561Z,94.51
2019-04-11T10:29:39.586Z,94.51
2019-04-11T10:30:39.806Z,94.03
2019-04-11T10:31:38.901Z,94.98
2019-04-11T10:32:39.292Z,94.98
2019-04-11T10:33:39.322Z,94.70
2019-04-11T10:34:38.242Z,95.56
2019-04-11T10:35:38.698Z,95.46
2019-04-11T10:36:39.060Z,95.08
2019-04-11T10:37:38.048Z,95.27
2019-04-11T10:38:38.327Z,95.17
2019-04-11T10:39:37.915Z,94.89
2019-04-11T10:40:37.850Z,95.36
2019-04-11T10:41:37.948Z,95.36
2019-04-11T10:42:38.817Z,94.79
2019-04-11T10:43:37.664Z,94.70
2019-04-11T10:44:38.805Z,94.42
2019-04-11T10:45:38.517Z,95.27
2019-04-11T10:46:37.594Z,95.08
2019-04-11T10:47:38.692Z,94.98
2019-04-11T10:48:39.815Z,95.36
2019-04-11T10:49:37.264Z,95.36
2019-04-11T10:50:37.202Z,95.27
2019-04-11T10:51:37.952Z,95.08
2019-04-11T10:52:38.296Z,95.56
2019-04-11T10:53:37.391Z,94.74
2019-04-11T10:54:36.941Z,95.32
2019-04-11T10:55:37.802Z,95.03
2019-04-11T10:56:36.807Z,95.60
2019-04-11T10:57:36.744Z,94.74
2019-04-11T10:58:37.220Z,94.93
2019-04-11T10:59:36.627Z,96.26
2019-04-11T11:00:37.543Z,94.08
2019-04-11T11:01:36.494Z,93.32
2019-04-11T11:02:37.618Z,93.70
2019-04-11T11:03:36.354Z,93.32
2019-04-11T11:04:36.730Z,93.23
2019-04-11T11:05:36.224Z,93.98
2019-04-11T11:06:36.157Z,93.70
2019-04-11T11:07:37.046Z,92.60
2019-04-11T11:08:36.032Z,92.18
2019-04-11T11:09:37.232Z,90.89
2019-04-11T11:10:35.903Z,90.51
2019-04-11T11:11:37.123Z,91.22
2019-04-11T11:12:37.035Z,92.03
2019-04-11T11:13:36.072Z,91.17
2019-04-11T11:14:36.553Z,90.13
2019-04-11T11:15:35.834Z,89.84
2019-04-11T11:16:40.357Z,89.75
2019-04-11T11:17:52.645Z,90.51
2019-04-11T11:19:06.981Z,90.22
2019-04-11T11:19:50.179Z,89.37
2019-04-11T11:20:39.949Z,89.47
2019-04-11T11:21:35.645Z,89.94
2019-04-11T11:22:36.296Z,89.56
2019-04-11T11:23:35.323Z,89.75
2019-04-11T11:24:38.742Z,89.08
2019-04-11T11:25:35.130Z,90.22
2019-04-11T11:26:35.573Z,90.08
2019-04-11T11:27:34.808Z,88.93
2019-04-11T11:28:34.737Z,87.84
2019-04-11T11:29:35.018Z,85.46
2019-04-11T11:30:35.352Z,85.17
2019-04-11T11:31:34.543Z,84.41
2019-04-11T11:32:35.660Z,83.93
2019-04-11T11:33:34.418Z,83.84
2019-04-11T11:34:34.645Z,83.84
2019-04-11T11:35:37.246Z,83.55
2019-04-11T11:36:37.523Z,83.26
2019-04-11T11:37:35.328Z,84.03
2019-04-11T11:38:34.094Z,83.17
2019-04-11T11:39:35.192Z,83.55
2019-04-11T11:40:38.472Z,84.31
2019-04-11T11:41:33.901Z,83.65
2019-04-11T11:42:34.469Z,84.41
2019-04-11T11:43:34.956Z,84.41
2019-04-11T11:44:34.930Z,84.03
2019-04-11T11:45:33.642Z,84.12
2019-04-11T11:46:34.159Z,84.03
2019-04-11T11:47:38.031Z,83.55
2019-04-11T11:48:33.476Z,84.31
2019-04-11T11:49:45.613Z,85.64
2019-04-11T11:50:34.519Z,85.64
2019-04-11T11:51:33.354Z,87.31
2019-04-11T11:52:34.537Z,87.40
2019-04-11T11:53:33.134Z,86.07
2019-04-11T11:54:33.067Z,85.21
2019-04-11T11:55:33.496Z,85.60
2019-04-11T11:56:34.011Z,84.59
2019-04-11T11:57:33.039Z,84.49
2019-04-11T11:58:33.386Z,83.73
2019-04-11T11:59:32.752Z,83.64
2019-04-11T12:00:33.343Z,81.73
2019-04-11T12:01:32.624Z,82.17
2019-04-11T12:02:32.749Z,82.97
2019-04-11T12:03:33.072Z,82.78
2019-04-11T12:04:35.446Z,83.06
2019-04-11T12:05:32.722Z,82.30
2019-04-11T12:06:33.360Z,82.68
2019-04-11T12:07:36.216Z,80.87
2019-04-11T12:08:32.755Z,81.35
2019-04-11T12:09:32.118Z,80.49
2019-04-11T12:10:32.887Z,81.82
2019-04-11T12:11:32.404Z,81.92
2019-04-11T12:12:31.937Z,80.58
2019-04-11T12:13:32.611Z,81.25
2019-04-11T12:14:32.975Z,80.20
2019-04-11T12:15:32.915Z,80.39
2019-04-11T12:16:31.909Z,80.68
2019-04-11T12:17:32.445Z,80.58
2019-04-11T12:18:31.548Z,80.20
2019-04-11T12:19:43.593Z,79.25
2019-04-11T12:20:31.424Z,79.91
2019-04-11T12:21:31.764Z,80.49
2019-04-11T12:22:31.354Z,80.49
2019-04-11T12:23:43.842Z,79.15
2019-04-11T12:24:32.185Z,79.91
2019-04-11T12:25:31.419Z,79.88
2019-04-11T12:26:33.251Z,80.54
2019-04-11T12:27:31.218Z,80.92
2019-04-11T12:28:30.926Z,81.78
2019-04-11T12:29:30.863Z,82.45
2019-04-11T12:30:32.747Z,82.64
2019-04-11T12:31:32.088Z,82.35
2019-04-11T12:32:30.666Z,82.35
2019-04-11T12:33:30.601Z,83.21
2019-04-11T12:34:30.539Z,82.83
2019-04-11T12:35:30.644Z,83.02
2019-04-11T12:36:30.710Z,83.69
2019-04-11T12:37:31.616Z,83.59
2019-04-11T12:38:30.331Z,82.83
2019-04-11T12:39:30.236Z,81.59
2019-04-11T12:40:30.163Z,82.07
2019-04-11T12:41:30.099Z,83.40
2019-04-11T12:42:30.036Z,84.07
2019-04-11T12:43:29.976Z,83.97
2019-04-11T12:44:30.290Z,84.16
2019-04-11T12:45:29.849Z,84.16
2019-04-11T12:46:30.284Z,83.31
2019-04-11T12:47:29.728Z,83.02
2019-04-11T12:48:29.664Z,82.83
2019-04-11T12:49:29.589Z,83.02
2019-04-11T12:50:29.531Z,83.21
2019-04-11T12:51:29.470Z,83.97
2019-04-11T12:52:29.402Z,83.78
2019-04-11T12:53:29.342Z,83.02
2019-04-11T12:54:29.281Z,83.40